LEVDLEBA

Guest
Details From LEVD - Valladolid - Villanubla
To LEBA - Cordoba
Flight Number -
Tags generated
Created
Modified
Stats Distance 237 nm / 439 km
Max Altitude 27,800 ft / 8,473 m
Waypoints 4
Social Downloads 0
Likes 0
Share VATSIM

Download

Looking for another format? Having issues loading an existing format? Contact us
Advertisement - Login to hide

Notes

Basic altitude profile: - Ascent Rate: 2500ft/min - Ascent Speed: 250kts - Cruise Altitude: 12000ft - Cruise Speed: 420kts - Descent Rate: 1500ft/min - Descent Speed: 250kts Options: - Use NATs: yes - Use PACOTS: yes - Use low airways: yes - Use high airways: yes

Route

LEVD TLD UN864 MONTO LEBA

ID Type Via Altitude Latitude Longitude Leg Dist Tot Dist Heading (true) Name
O LEVD APT - 0 ft / 0 m 41.70827˚ -4.85528˚ - 0 nm - Valladolid - Villanubla
TLD VOR - 27,800 ft / 8,473 m 39.96946˚ -4.33747˚ 107 nm 107 nm 167° / 167° TOLEDO VOR-DME
MONTO FIX UN864 (AWY-HI) 24,500 ft / 7,468 m 39.22177˚ -4.49683˚ 45 nm 152 nm 189° / 189° -
O LEBA APT - 0 ft / 0 m 37.84315˚ -4.84806˚ 84 nm 236 nm 191° / 191° Cordoba

Altitude Profile

Advertisement - Login to hide

Weather


0- 5 10 15 20 25 30 35+ Temperature / ° C

Clouds and Precipitation
Forecast for 2018-05-23 12:00 UTC. Updated 2 hours ago

Ground ~20,000 ft ~40,000 ft Winds

LEVD

Details ICAO LEVD (VLL)
Name Valladolid - Villanubla
Region Spain
Timezone Europe/Madrid (UTC+2.0)
Stats Elevation 2,775 ft / 846 m (AMSL)
Location 41.708270° -4.855278°
Runways 2
Magnetic Variation 1.077° W

METAR

LEVD 231230Z 35003KT 270V070 9999 BKN040 22/11 Q1017

Decode

TAF

TAF LEVD 231100Z 2312/2412 VRB05KT 9999 SCT040 TX23/2314Z TN09/2405Z TEMPO 2312/2319 16012KT RA SHRA SCT040TCU PROB40 TEMPO 2312/2324 VRB15G25KT 4000 TSRA SCT040CB TEMPO 2406/2412 SCT035TCU

Decode

Departure Runways

ID Width Length Bearing (true) Bearing (mag) Surface Threshold Offset Overrun Length
05 197 ft / 60 m 9,851 ft / 3,003 m 45.09° 46.17° Asphalt 0 ft / 0 m 676 ft / 206 m
15 197 ft / 60 m 2,975 ft / 907 m 144.18° 145.26° Dirt 0 ft / 0 m 213 ft / 65 m
23 197 ft / 60 m 9,851 ft / 3,003 m 225.10° 226.18° Asphalt 0 ft / 0 m 164 ft / 50 m
33 197 ft / 60 m 2,975 ft / 907 m 324.18° 325.26° Dirt 0 ft / 0 m 656 ft / 200 m

LEBA

Details ICAO LEBA (ODB)
Name Cordoba
Region Spain
Timezone Europe/Madrid (UTC+2.0)
Stats Elevation 296 ft / 90 m (AMSL)
Location 37.843152° -4.848064°
Runways 1
Magnetic Variation 0.941° W

METAR

LEBA 231230Z 12005KT 060V160 CAVOK 27/11 Q1014

Decode

TAF

Not found

Destination Runways

ID Width Length Bearing (true) Bearing (mag) Surface Threshold Offset Overrun Length
03 197 ft / 60 m 7,224 ft / 2,202 m 28.69° 29.63° Asphalt 0 ft / 0 m 0 ft / 0 m
21 197 ft / 60 m 7,224 ft / 2,202 m 208.70° 209.64° Asphalt 1,939 ft / 591 m 0 ft / 0 m